Time;durP1;ratioP1;P1;durP2;ratioP2;P2;SDS_P1;SDS_P2;PMS_P1;PMS_P2;Temp;Humidity;BMP_temperature;BMP_pressure;BME280_temperature;BME280_humidity;BME280_pressure;Samples;Min_cycle;Max_cycle;Signal;HPM_P1;HPM_P2
2023/04/23 00:02:25;;;;;;;0.70;0.70;;;;;;;;;;5092666;28;20240;-88
2023/04/23 00:04:54;;;;;;;0.80;0.80;;;;;;;;;;5092923;28;20198;-88
2023/04/23 00:07:23;;;;;;;0.80;0.80;;;;;;;;;;5092531;28;20197;-88
2023/04/23 00:09:55;;;;;;;0.80;0.80;;;;;;;;;;5092364;28;20200;-88
2023/04/23 00:12:24;;;;;;;0.80;0.80;;;;;;;;;;5092780;28;20233;-88
2023/04/23 00:14:53;;;;;;;0.73;0.73;;;;;;;;;;5092735;28;20219;-88
2023/04/23 00:17:21;;;;;;;0.80;0.80;;;;;;;;;;5092504;28;20222;-88
2023/04/23 00:19:50;;;;;;;0.70;0.70;;;;;;;;;;5091839;28;20198;-87
2023/04/23 00:22:19;;;;;;;0.70;0.70;;;;;;;;;;5093146;28;20210;-88
2023/04/23 00:24:47;;;;;;;0.70;0.70;;;;;;;;;;5092576;28;20226;-88
2023/04/23 00:27:19;;;;;;;0.80;0.80;;;;;;;;;;5092659;28;20283;-88
2023/04/23 00:29:50;;;;;;;0.70;0.70;;;;;;;;;;5092633;28;20235;-87
2023/04/23 00:32:18;;;;;;;0.80;0.80;;;;;;;;;;5092253;28;20206;-89
2023/04/23 00:34:48;;;;;;;0.70;0.70;;;;;;;;;;5092059;28;20206;-88
2023/04/23 00:37:16;;;;;;;0.80;0.80;;;;;;;;;;5092443;28;20199;-88
2023/04/23 00:39:45;;;;;;;0.80;0.80;;;;;;;;;;5092276;28;20202;-87
2023/04/23 00:42:15;;;;;;;0.80;0.80;;;;;;;;;;5092318;28;20429;-88
2023/04/23 00:44:45;;;;;;;0.70;0.70;;;;;;;;;;5092410;28;20239;-88
2023/04/23 00:47:15;;;;;;;0.73;0.73;;;;;;;;;;5092189;28;20308;-88
2023/04/23 00:49:44;;;;;;;0.80;0.80;;;;;;;;;;5091534;28;20208;-88
2023/04/23 00:52:12;;;;;;;0.80;0.80;;;;;;;;;;5092186;28;20230;-88
2023/04/23 00:54:41;;;;;;;0.80;0.80;;;;;;;;;;5091782;28;20316;-88
2023/04/23 00:57:10;;;;;;;0.80;0.80;;;;;;;;;;5091590;28;20206;-89
2023/04/23 00:59:38;;;;;;;0.77;0.77;;;;;;;;;;5091511;28;20201;-87
2023/04/23 01:02:08;;;;;;;2.03;2.03;;;;;;;;;;5091790;28;20285;-88
2023/04/23 01:04:37;;;;;;;0.70;0.70;;;;;;;;;;5091516;28;20198;-88
2023/04/23 01:07:06;;;;;;;0.80;0.80;;;;;;;;;;5091880;28;20195;-88
2023/04/23 01:09:35;;;;;;;0.80;0.80;;;;;;;;;;5091287;28;20216;-88
2023/04/23 01:12:06;;;;;;;0.70;0.70;;;;;;;;;;5091397;28;20194;-88
2023/04/23 01:14:35;;;;;;;0.80;0.80;;;;;;;;;;5091779;28;20228;-88
2023/04/23 01:17:04;;;;;;;0.80;0.80;;;;;;;;;;5091738;28;20273;-88
2023/04/23 01:19:35;;;;;;;0.80;0.80;;;;;;;;;;5091290;28;20272;-88
2023/04/23 01:22:03;;;;;;;0.80;0.80;;;;;;;;;;5091520;28;20194;-88
2023/04/23 01:24:33;;;;;;;0.80;0.80;;;;;;;;;;5091152;28;20216;-88
2023/04/23 01:27:02;;;;;;;0.80;0.80;;;;;;;;;;5091350;28;20222;-88
2023/04/23 01:29:31;;;;;;;0.70;0.70;;;;;;;;;;5091089;28;20222;-88
2023/04/23 01:32:00;;;;;;;0.70;0.70;;;;;;;;;;5095347;28;20195;-88
2023/04/23 01:34:29;;;;;;;0.80;0.80;;;;;;;;;;5095010;28;20245;-88
2023/04/23 01:36:59;;;;;;;0.80;0.80;;;;;;;;;;5095023;28;20267;-88
2023/04/23 01:39:27;;;;;;;0.70;0.70;;;;;;;;;;5095263;28;20306;-87
2023/04/23 01:41:57;;;;;;;0.80;0.80;;;;;;;;;;5095292;28;20211;-87
2023/04/23 01:44:28;;;;;;;115.17;56.23;;;;;;;;;;5094916;28;20317;-87
2023/04/23 01:46:57;;;;;;;135.23;65.43;;;;;;;;;;5095114;28;20298;-88
2023/04/23 01:49:25;;;;;;;128.60;62.60;;;;;;;;;;5095243;28;20198;-88
2023/04/23 01:51:54;;;;;;;128.70;67.80;;;;;;;;;;5094861;28;20233;-87
2023/04/23 01:54:22;;;;;;;87.63;44.47;;;;;;;;;;5094900;28;20239;-88
2023/04/23 01:56:53;;;;;;;46.43;26.90;;;;;;;;;;5094904;28;20198;-88
2023/04/23 01:59:23;;;;;;;104.10;51.47;;;;;;;;;;5094542;28;20226;-87
2023/04/23 02:01:52;;;;;;;80.87;42.07;;;;;;;;;;5095010;28;20302;-88
2023/04/23 02:04:20;;;;;;;87.70;47.13;;;;;;;;;;5094920;28;20201;-88
2023/04/23 02:06:51;;;;;;;105.03;56.17;;;;;;;;;;5094850;28;20209;-88
2023/04/23 02:09:20;;;;;;;100.07;58.30;;;;;;;;;;5094415;28;20190;-88
2023/04/23 02:11:48;;;;;;;92.40;49.20;;;;;;;;;;5094882;28;20204;-88
2023/04/23 02:14:17;;;;;;;103.47;60.13;;;;;;;;;;5094406;28;20207;-87
2023/04/23 02:16:47;;;;;;;93.17;49.90;;;;;;;;;;5094119;28;20225;-87
2023/04/23 02:19:15;;;;;;;73.67;43.90;;;;;;;;;;5094640;28;20253;-87
2023/04/23 02:21:44;;;;;;;103.53;58.93;;;;;;;;;;5094515;28;20210;-88
2023/04/23 02:24:12;;;;;;;77.63;47.63;;;;;;;;;;5094336;28;20201;-88
2023/04/23 02:26:41;;;;;;;89.33;51.37;;;;;;;;;;5094570;28;20247;-88
2023/04/23 02:29:09;;;;;;;31.73;20.13;;;;;;;;;;5094647;28;20245;-88
2023/04/23 02:31:37;;;;;;;79.37;45.17;;;;;;;;;;5094133;28;20204;-88
2023/04/23 02:34:07;;;;;;;75.63;48.97;;;;;;;;;;5094880;28;20196;-88
2023/04/23 02:36:37;;;;;;;80.10;44.10;;;;;;;;;;5094663;28;20209;-88
2023/04/23 02:39:05;;;;;;;74.13;45.67;;;;;;;;;;5093983;28;20208;-88
2023/04/23 02:41:34;;;;;;;74.03;48.47;;;;;;;;;;5094560;28;20203;-88
2023/04/23 02:44:02;;;;;;;73.97;46.53;;;;;;;;;;5094161;28;20204;-88
2023/04/23 02:46:31;;;;;;;74.80;48.20;;;;;;;;;;5093804;28;20197;-88
2023/04/23 02:48:59;;;;;;;74.40;53.23;;;;;;;;;;5094389;28;20200;-87
2023/04/23 02:51:30;;;;;;;79.37;49.70;;;;;;;;;;5093926;28;20208;-87
2023/04/23 02:53:58;;;;;;;77.53;53.13;;;;;;;;;;5093673;28;20295;-87
2023/04/23 02:56:26;;;;;;;75.47;50.23;;;;;;;;;;5094301;28;20233;-88
2023/04/23 02:58:55;;;;;;;67.67;45.07;;;;;;;;;;5093827;28;20225;-88
2023/04/23 03:01:23;;;;;;;77.90;47.40;;;;;;;;;;5093741;28;20284;-88
2023/04/23 03:03:52;;;;;;;81.60;49.93;;;;;;;;;;5093274;28;20196;-88
2023/04/23 03:06:21;;;;;;;77.97;46.67;;;;;;;;;;5093440;28;20203;-88
2023/04/23 03:08:51;;;;;;;77.27;44.90;;;;;;;;;;5093903;28;20225;-88
2023/04/23 03:11:20;;;;;;;95.37;57.00;;;;;;;;;;5093548;28;20199;-88
2023/04/23 03:13:48;;;;;;;82.30;45.33;;;;;;;;;;5093925;28;20199;-88
2023/04/23 03:16:17;;;;;;;81.07;47.53;;;;;;;;;;5093101;28;20242;-88
2023/04/23 03:18:45;;;;;;;79.13;46.43;;;;;;;;;;5093793;28;20206;-88
2023/04/23 03:21:13;;;;;;;74.00;45.07;;;;;;;;;;5093271;28;20192;-88
2023/04/23 03:23:42;;;;;;;63.10;39.97;;;;;;;;;;5093253;28;20213;-88
2023/04/23 03:26:12;;;;;;;53.87;34.03;;;;;;;;;;5092772;28;20237;-88
2023/04/23 03:28:40;;;;;;;75.80;48.20;;;;;;;;;;5093379;28;20249;-88
2023/04/23 03:31:09;;;;;;;81.53;54.33;;;;;;;;;;5093394;28;20203;-88
2023/04/23 03:33:37;;;;;;;73.23;46.73;;;;;;;;;;5093318;28;20204;-88
2023/04/23 03:36:06;;;;;;;85.03;52.40;;;;;;;;;;5093328;28;20203;-88
2023/04/23 03:38:34;;;;;;;89.37;58.00;;;;;;;;;;5093036;28;20207;-87
2023/04/23 03:41:03;;;;;;;85.77;52.30;;;;;;;;;;5092563;28;20226;-88
2023/04/23 03:43:33;;;;;;;91.50;55.77;;;;;;;;;;5093214;28;20199;-87
2023/04/23 03:46:01;;;;;;;95.13;58.20;;;;;;;;;;5093057;28;20206;-87
2023/04/23 03:48:30;;;;;;;81.50;46.43;;;;;;;;;;5092170;28;20191;-88
2023/04/23 03:50:59;;;;;;;69.00;41.90;;;;;;;;;;5092573;28;20198;-87
2023/04/23 03:53:27;;;;;;;87.63;50.17;;;;;;;;;;5092354;28;20205;-88
2023/04/23 03:55:55;;;;;;;83.30;53.47;;;;;;;;;;5092128;28;20232;-88
2023/04/23 03:58:24;;;;;;;66.83;39.97;;;;;;;;;;5092297;28;20279;-88
2023/04/23 04:00:54;;;;;;;84.77;48.87;;;;;;;;;;5092708;28;20310;-88
2023/04/23 04:03:23;;;;;;;80.20;48.50;;;;;;;;;;5092278;28;20202;-88
2023/04/23 04:05:52;;;;;;;83.17;47.10;;;;;;;;;;5092371;28;20268;-88
2023/04/23 04:08:21;;;;;;;71.13;41.17;;;;;;;;;;5092827;28;20247;-88
2023/04/23 04:10:49;;;;;;;66.97;38.77;;;;;;;;;;5092271;28;20199;-88
2023/04/23 04:13:18;;;;;;;77.93;50.67;;;;;;;;;;5092225;28;20293;-88
2023/04/23 04:15:47;;;;;;;80.43;51.37;;;;;;;;;;5092535;28;20252;-88
2023/04/23 04:18:16;;;;;;;58.77;32.57;;;;;;;;;;5092420;28;20245;-88
2023/04/23 04:20:45;;;;;;;83.87;53.50;;;;;;;;;;5091986;28;20214;-87
2023/04/23 04:23:13;;;;;;;52.90;29.77;;;;;;;;;;5092257;28;20211;-88
2023/04/23 04:25:41;;;;;;;64.67;40.17;;;;;;;;;;5092325;28;20230;-88
2023/04/23 04:28:10;;;;;;;81.53;60.37;;;;;;;;;;5092209;28;20223;-88
2023/04/23 04:30:41;;;;;;;64.80;39.77;;;;;;;;;;5092722;28;20290;-88
2023/04/23 04:33:09;;;;;;;75.63;49.23;;;;;;;;;;5092694;28;20199;-88
2023/04/23 04:35:39;;;;;;;44.10;28.50;;;;;;;;;;5092395;28;20273;-88
2023/04/23 04:38:08;;;;;;;31.53;22.73;;;;;;;;;;5091728;28;20213;-87
2023/04/23 04:40:36;;;;;;;75.03;50.03;;;;;;;;;;5092094;28;20311;-88
2023/04/23 04:43:05;;;;;;;71.13;48.67;;;;;;;;;;5091765;28;20204;-88
2023/04/23 04:45:35;;;;;;;64.70;38.93;;;;;;;;;;5091957;28;20217;-88
2023/04/23 04:48:04;;;;;;;72.50;44.83;;;;;;;;;;5092003;28;20207;-88
2023/04/23 04:50:32;;;;;;;72.87;44.40;;;;;;;;;;5092451;28;20278;-88
2023/04/23 04:53:02;;;;;;;60.17;38.20;;;;;;;;;;5091502;28;20200;-88
2023/04/23 04:55:31;;;;;;;70.57;39.43;;;;;;;;;;5091757;28;20246;-89
2023/04/23 04:57:59;;;;;;;75.50;49.40;;;;;;;;;;5091783;28;20206;-88
2023/04/23 05:00:28;;;;;;;73.83;52.10;;;;;;;;;;5091635;28;20250;-88
2023/04/23 05:02:57;;;;;;;54.63;35.70;;;;;;;;;;5091653;28;20199;-88
2023/04/23 05:05:27;;;;;;;58.37;36.00;;;;;;;;;;5091909;28;20305;-88
2023/04/23 05:07:58;;;;;;;64.43;38.77;;;;;;;;;;5091633;28;20252;-88
2023/04/23 05:10:28;;;;;;;60.77;38.53;;;;;;;;;;5091661;28;20253;-88
2023/04/23 05:12:57;;;;;;;70.50;50.03;;;;;;;;;;5091940;28;20188;-88
2023/04/23 05:15:25;;;;;;;74.87;47.53;;;;;;;;;;5091540;28;20201;-87
2023/04/23 05:17:54;;;;;;;71.87;49.07;;;;;;;;;;5092093;28;20246;-88
2023/04/23 05:20:23;;;;;;;74.87;51.80;;;;;;;;;;5091567;28;20223;-88
2023/04/23 05:22:52;;;;;;;60.17;39.40;;;;;;;;;;5091396;28;20218;-88
2023/04/23 05:25:20;;;;;;;66.93;45.87;;;;;;;;;;5091679;28;20203;-88
2023/04/23 05:27:50;;;;;;;71.83;49.67;;;;;;;;;;5091277;28;20314;-88
2023/04/23 05:30:19;;;;;;;67.27;52.10;;;;;;;;;;5091404;28;20203;-88
2023/04/23 05:32:47;;;;;;;67.40;41.63;;;;;;;;;;5091722;28;20221;-88
2023/04/23 05:35:16;;;;;;;68.37;53.00;;;;;;;;;;5091777;28;20294;-88
2023/04/23 05:37:44;;;;;;;67.03;47.97;;;;;;;;;;5091646;28;20230;-88
2023/04/23 05:40:12;;;;;;;55.00;34.97;;;;;;;;;;5091396;28;20249;-87
2023/04/23 05:42:41;;;;;;;46.13;32.97;;;;;;;;;;5091504;28;20298;-89
2023/04/23 05:45:11;;;;;;;66.17;40.40;;;;;;;;;;5091470;28;20199;-88
2023/04/23 05:47:40;;;;;;;61.37;41.97;;;;;;;;;;5091259;28;20226;-88
2023/04/23 05:50:10;;;;;;;67.67;41.23;;;;;;;;;;5091372;28;20210;-88
2023/04/23 05:52:38;;;;;;;66.57;47.70;;;;;;;;;;5091402;28;20277;-88
2023/04/23 05:55:08;;;;;;;53.47;36.77;;;;;;;;;;5090564;28;20235;-88
2023/04/23 05:57:37;;;;;;;64.83;45.93;;;;;;;;;;5091467;28;20197;-88
2023/04/23 06:00:08;;;;;;;59.67;42.17;;;;;;;;;;5091144;28;20293;-88
2023/04/23 06:02:38;;;;;;;56.10;37.03;;;;;;;;;;5091470;28;20270;-88
2023/04/23 06:05:07;;;;;;;56.43;40.27;;;;;;;;;;5091248;28;20203;-88
2023/04/23 06:07:36;;;;;;;51.00;38.37;;;;;;;;;;5091317;28;20202;-88
2023/04/23 06:10:05;;;;;;;57.77;48.37;;;;;;;;;;5091427;28;20302;-87
2023/04/23 06:12:37;;;;;;;45.23;35.57;;;;;;;;;;5091583;28;20210;-88
2023/04/23 06:15:07;;;;;;;52.70;46.83;;;;;;;;;;5091648;28;20205;-88
2023/04/23 06:17:35;;;;;;;52.90;46.87;;;;;;;;;;5092502;28;20198;-88
2023/04/23 06:20:06;;;;;;;52.37;45.00;;;;;;;;;;5094274;28;20217;-87
2023/04/23 06:22:34;;;;;;;54.70;49.20;;;;;;;;;;5095141;28;20246;-88
2023/04/23 06:25:03;;;;;;;53.93;48.33;;;;;;;;;;5094941;28;20199;-88
2023/04/23 06:27:32;;;;;;;48.73;41.63;;;;;;;;;;5094627;28;20303;-88
2023/04/23 06:30:00;;;;;;;50.80;40.13;;;;;;;;;;5094508;28;20209;-88
2023/04/23 06:32:29;;;;;;;44.97;35.00;;;;;;;;;;5094234;28;20197;-89
2023/04/23 06:34:58;;;;;;;44.97;39.37;;;;;;;;;;5094230;28;20200;-88
2023/04/23 06:37:31;;;;;;;40.30;33.93;;;;;;;;;;5094866;28;20228;-88
2023/04/23 06:40:00;;;;;;;40.33;32.50;;;;;;;;;;5094436;28;20208;-88
2023/04/23 06:42:28;;;;;;;41.90;36.20;;;;;;;;;;5093953;28;20292;-88
2023/04/23 06:45:02;;;;;;;33.40;26.83;;;;;;;;;;5094745;28;20209;-88
2023/04/23 06:47:33;;;;;;;12.97;11.67;;;;;;;;;;5095025;28;20246;-88
2023/04/23 06:50:02;;;;;;;20.40;18.13;;;;;;;;;;5093936;28;20197;-88
2023/04/23 06:52:32;;;;;;;29.97;27.17;;;;;;;;;;5094449;28;20204;-88
2023/04/23 06:55:00;;;;;;;27.77;23.20;;;;;;;;;;5094380;28;20225;-88
2023/04/23 06:57:29;;;;;;;26.77;23.57;;;;;;;;;;5094187;28;20288;-88
2023/04/23 06:59:58;;;;;;;26.00;23.30;;;;;;;;;;5094333;28;20197;-88
2023/04/23 07:02:26;;;;;;;25.30;22.07;;;;;;;;;;5094057;28;20255;-88
2023/04/23 07:04:55;;;;;;;20.60;17.97;;;;;;;;;;5093191;28;20189;-88
2023/04/23 07:07:23;;;;;;;21.67;15.93;;;;;;;;;;5094171;28;20296;-88
2023/04/23 07:09:53;;;;;;;24.17;17.83;;;;;;;;;;5093932;28;20201;-88
2023/04/23 07:12:22;;;;;;;14.97;12.67;;;;;;;;;;5094133;28;20262;-88
2023/04/23 07:14:52;;;;;;;22.60;20.23;;;;;;;;;;5093752;28;20193;-88
2023/04/23 07:17:20;;;;;;;21.73;19.17;;;;;;;;;;5094072;28;20200;-88
2023/04/23 07:19:49;;;;;;;14.73;11.00;;;;;;;;;;5093823;28;20296;-88
2023/04/23 07:22:18;;;;;;;21.53;17.40;;;;;;;;;;5092923;28;20267;-88
2023/04/23 07:24:46;;;;;;;21.00;18.87;;;;;;;;;;5093455;28;20189;-88
2023/04/23 07:27:16;;;;;;;23.53;21.43;;;;;;;;;;5093529;28;20225;-89
2023/04/23 07:29:44;;;;;;;13.17;6.80;;;;;;;;;;5093354;28;20205;-88
2023/04/23 07:32:16;;;;;;;18.40;15.73;;;;;;;;;;5093425;28;20225;-88
2023/04/23 07:34:44;;;;;;;19.37;17.47;;;;;;;;;;5093586;28;20252;-88
2023/04/23 07:37:13;;;;;;;15.20;10.47;;;;;;;;;;5093219;28;20233;-88
2023/04/23 07:39:41;;;;;;;18.87;15.10;;;;;;;;;;5093423;28;20260;-88
2023/04/23 07:42:11;;;;;;;18.67;16.77;;;;;;;;;;5093806;28;20217;-88
2023/04/23 07:44:41;;;;;;;19.00;16.93;;;;;;;;;;5093353;28;20213;-88
2023/04/23 07:47:10;;;;;;;14.77;12.90;;;;;;;;;;5093634;28;20274;-88
2023/04/23 07:49:38;;;;;;;22.20;16.93;;;;;;;;;;5093835;28;20197;-88
2023/04/23 07:52:07;;;;;;;18.10;16.40;;;;;;;;;;5093346;28;20195;-89
2023/04/23 07:54:36;;;;;;;12.70;10.00;;;;;;;;;;5093062;28;20275;-88
2023/04/23 07:57:04;;;;;;;18.03;16.23;;;;;;;;;;5093467;28;20292;-88
2023/04/23 07:59:33;;;;;;;8.83;6.27;;;;;;;;;;5092787;28;20292;-88
2023/04/23 08:02:03;;;;;;;15.87;6.93;;;;;;;;;;5092241;28;20209;-88
2023/04/23 08:04:31;;;;;;;12.50;8.00;;;;;;;;;;5093364;28;20225;-87
2023/04/23 08:07:00;;;;;;;15.83;13.17;;;;;;;;;;5092370;28;20187;-88
2023/04/23 08:09:28;;;;;;;14.00;10.80;;;;;;;;;;5092705;28;20230;-88
2023/04/23 08:11:57;;;;;;;10.70;7.20;;;;;;;;;;5092887;28;20243;-88
2023/04/23 08:14:25;;;;;;;7.07;4.47;;;;;;;;;;5092890;28;20224;-89
2023/04/23 08:16:54;;;;;;;9.07;5.20;;;;;;;;;;5092749;28;20233;-88
2023/04/23 08:19:24;;;;;;;9.23;8.33;;;;;;;;;;5093206;28;20201;-88
2023/04/23 08:21:53;;;;;;;12.47;9.67;;;;;;;;;;5092302;28;20221;-88
2023/04/23 08:24:21;;;;;;;13.77;11.60;;;;;;;;;;5092566;28;20217;-88
2023/04/23 08:26:50;;;;;;;11.20;7.83;;;;;;;;;;5092702;28;20307;-88
2023/04/23 08:29:19;;;;;;;11.50;8.67;;;;;;;;;;5092900;28;20229;-88
2023/04/23 08:31:47;;;;;;;10.70;8.30;;;;;;;;;;5092247;28;20224;-88
2023/04/23 08:34:16;;;;;;;11.23;9.13;;;;;;;;;;5092875;28;20192;-88
2023/04/23 08:36:47;;;;;;;18.20;9.63;;;;;;;;;;5092236;28;20264;-88
2023/04/23 08:39:16;;;;;;;7.30;4.97;;;;;;;;;;5092337;28;20234;-88
2023/04/23 08:41:45;;;;;;;9.27;7.43;;;;;;;;;;5091981;28;20218;-88
2023/04/23 08:44:17;;;;;;;8.13;6.83;;;;;;;;;;5092911;28;20266;-88
2023/04/23 08:46:45;;;;;;;7.37;6.60;;;;;;;;;;5092191;28;20202;-88
2023/04/23 08:49:15;;;;;;;9.67;8.77;;;;;;;;;;5092435;28;20201;-88
2023/04/23 08:51:47;;;;;;;10.73;7.43;;;;;;;;;;5092189;28;20198;-88
2023/04/23 08:54:19;;;;;;;11.27;7.77;;;;;;;;;;5092396;28;20296;-88
2023/04/23 08:56:48;;;;;;;3.70;3.07;;;;;;;;;;5092851;28;20206;-88
2023/04/23 08:59:17;;;;;;;9.83;6.73;;;;;;;;;;5092206;28;20262;-88
2023/04/23 09:01:45;;;;;;;11.47;7.27;;;;;;;;;;5091453;28;20256;-88
2023/04/23 09:04:15;;;;;;;12.20;7.03;;;;;;;;;;5091611;28;20199;-88
2023/04/23 09:06:44;;;;;;;7.77;6.07;;;;;;;;;;5091773;28;20428;-88
2023/04/23 09:09:13;;;;;;;8.47;6.80;;;;;;;;;;5091576;28;20234;-88
2023/04/23 09:11:43;;;;;;;18.13;8.70;;;;;;;;;;5091614;28;20199;-88
2023/04/23 09:14:13;;;;;;;8.47;5.70;;;;;;;;;;5091953;28;20232;-87
2023/04/23 09:16:41;;;;;;;10.07;7.30;;;;;;;;;;5091716;28;20299;-87
2023/04/23 09:19:10;;;;;;;7.57;6.83;;;;;;;;;;5091453;28;20206;-88
2023/04/23 09:21:40;;;;;;;8.17;6.43;;;;;;;;;;5091785;28;20277;-88
2023/04/23 09:24:11;;;;;;;8.10;6.40;;;;;;;;;;5091947;28;20257;-88
2023/04/23 09:26:47;;;;;;;5.90;5.27;;;;;;;;;;5091396;28;20226;-87
2023/04/23 09:29:17;;;;;;;7.93;5.13;;;;;;;;;;5091839;28;20210;-88
2023/04/23 09:31:48;;;;;;;9.73;7.40;;;;;;;;;;5091644;28;20231;-91
2023/04/23 09:34:17;;;;;;;7.27;6.10;;;;;;;;;;5091154;28;20219;-89
2023/04/23 09:36:46;;;;;;;12.27;8.73;;;;;;;;;;5091573;28;20208;-88
2023/04/23 09:39:14;;;;;;;3.67;3.00;;;;;;;;;;5091603;28;20207;-88
2023/04/23 09:41:44;;;;;;;11.03;8.57;;;;;;;;;;5091304;28;20291;-88
2023/04/23 09:44:17;;;;;;;4.17;3.70;;;;;;;;;;5091030;28;20216;-89
2023/04/23 09:46:46;;;;;;;6.43;5.83;;;;;;;;;;5091389;28;20226;-88
2023/04/23 09:49:15;;;;;;;9.10;7.07;;;;;;;;;;5091483;28;20212;-88
2023/04/23 09:51:45;;;;;;;7.13;6.43;;;;;;;;;;5091809;28;20209;-89
2023/04/23 09:54:14;;;;;;;13.57;7.93;;;;;;;;;;5095168;28;20240;-88
2023/04/23 09:56:42;;;;;;;10.43;6.10;;;;;;;;;;5095259;28;20273;-89
2023/04/23 09:59:22;;;;;;;9.77;5.87;;;;;;;;;;5096044;28;20337;-89
2023/04/23 10:02:08;;;;;;;16.50;6.03;;;;;;;;;;5095982;28;20205;-88
2023/04/23 10:04:37;;;;;;;8.57;4.93;;;;;;;;;;5095402;28;20307;-90
2023/04/23 10:07:07;;;;;;;11.33;5.80;;;;;;;;;;5096125;28;20200;-87
2023/04/23 10:09:47;;;;;;;12.97;6.97;;;;;;;;;;5095017;28;20192;-88
2023/04/23 10:12:16;;;;;;;9.50;5.80;;;;;;;;;;5094720;28;20202;-85
2023/04/23 10:14:52;;;;;;;7.50;5.73;;;;;;;;;;5095634;28;20203;-86
2023/04/23 10:17:22;;;;;;;7.80;4.63;;;;;;;;;;5095003;28;20201;-86
2023/04/23 10:19:52;;;;;;;7.00;5.17;;;;;;;;;;5094476;28;20303;-85
2023/04/23 10:22:24;;;;;;;5.37;4.70;;;;;;;;;;5094726;28;20202;-84
2023/04/23 10:24:56;;;;;;;8.33;6.47;;;;;;;;;;5094599;28;20232;-87
2023/04/23 10:27:27;;;;;;;9.47;6.33;;;;;;;;;;5094054;28;20293;-85
2023/04/23 10:30:17;;;;;;;7.43;4.80;;;;;;;;;;5094115;28;20211;-83
2023/04/23 10:32:45;;;;;;;8.87;5.60;;;;;;;;;;5094865;28;20235;-85
2023/04/23 10:35:14;;;;;;;13.77;6.60;;;;;;;;;;5094564;28;20197;-85
2023/04/23 10:37:42;;;;;;;7.93;4.40;;;;;;;;;;5094200;28;20247;-83
2023/04/23 10:40:12;;;;;;;6.23;4.47;;;;;;;;;;5094254;28;20201;-85
2023/04/23 10:42:42;;;;;;;7.93;5.97;;;;;;;;;;5094393;28;20197;-83
2023/04/23 10:45:14;;;;;;;8.43;5.47;;;;;;;;;;5094334;28;20240;-85
2023/04/23 10:47:55;;;;;;;8.37;4.47;;;;;;;;;;5094146;28;20211;-84
2023/04/23 10:50:24;;;;;;;7.93;5.03;;;;;;;;;;5093874;28;20204;-85
2023/04/23 10:52:55;;;;;;;6.47;5.03;;;;;;;;;;5094047;28;20298;-83
2023/04/23 10:55:25;;;;;;;9.33;6.40;;;;;;;;;;5094114;28;20236;-87
2023/04/23 10:57:57;;;;;;;8.30;5.47;;;;;;;;;;5094345;28;20229;-84
2023/04/23 11:00:29;;;;;;;8.33;5.47;;;;;;;;;;5093706;28;20208;-84
2023/04/23 11:02:59;;;;;;;5.73;3.80;;;;;;;;;;5093639;28;20254;-92
2023/04/23 11:05:30;;;;;;;3.70;3.30;;;;;;;;;;5094835;28;20212;-85
2023/04/23 11:08:04;;;;;;;7.33;5.33;;;;;;;;;;5093703;28;20284;-85
2023/04/23 11:10:55;;;;;;;7.50;5.17;;;;;;;;;;5093428;28;20208;-85
2023/04/23 11:13:24;;;;;;;8.47;4.67;;;;;;;;;;5093477;28;20191;-84
2023/04/23 11:16:14;;;;;;;10.27;5.33;;;;;;;;;;5093238;28;20197;-85
2023/04/23 11:19:02;;;;;;;7.77;5.33;;;;;;;;;;5088114;28;20207;-85
2023/04/23 11:21:49;;;;;;;6.27;4.47;;;;;;;;;;5093135;28;20204;-85
2023/04/23 11:24:19;;;;;;;6.13;4.37;;;;;;;;;;5092530;28;20231;-85
2023/04/23 11:26:49;;;;;;;6.73;4.17;;;;;;;;;;5093213;28;20263;-85
2023/04/23 11:29:17;;;;;;;7.10;4.07;;;;;;;;;;5093248;28;20200;-85
2023/04/23 11:31:48;;;;;;;8.63;3.97;;;;;;;;;;5092799;28;20263;-85
2023/04/23 11:34:29;;;;;;;2.57;2.10;;;;;;;;;;5092723;28;20192;-85
2023/04/23 11:37:00;;;;;;;11.43;4.97;;;;;;;;;;5092989;28;20263;-84
2023/04/23 11:39:29;;;;;;;8.53;5.53;;;;;;;;;;5092822;28;20203;-85
2023/04/23 11:42:01;;;;;;;7.27;5.37;;;;;;;;;;5092957;28;20210;-85
2023/04/23 11:44:30;;;;;;;7.40;3.47;;;;;;;;;;5092567;28;20223;-85
2023/04/23 11:47:01;;;;;;;7.97;5.47;;;;;;;;;;5092413;28;20236;-85
2023/04/23 11:49:29;;;;;;;4.43;3.77;;;;;;;;;;5092344;28;20235;-84
2023/04/23 11:52:00;;;;;;;6.57;4.57;;;;;;;;;;5093180;28;20241;-85
2023/04/23 11:54:30;;;;;;;5.10;4.00;;;;;;;;;;5092410;28;20195;-85
2023/04/23 11:56:58;;;;;;;9.63;5.13;;;;;;;;;;5092168;28;20240;-84
2023/04/23 11:59:27;;;;;;;5.53;4.57;;;;;;;;;;5092383;28;20200;-85
2023/04/23 12:01:56;;;;;;;8.83;4.83;;;;;;;;;;5092356;28;20228;-85
2023/04/23 12:04:26;;;;;;;5.97;3.47;;;;;;;;;;5092728;28;20225;-85
2023/04/23 12:06:55;;;;;;;11.10;4.23;;;;;;;;;;5092365;28;20211;-85
2023/04/23 12:09:25;;;;;;;5.47;4.33;;;;;;;;;;5092053;28;20228;-84
2023/04/23 12:11:56;;;;;;;5.63;3.57;;;;;;;;;;5092170;28;20211;-84
2023/04/23 12:14:29;;;;;;;7.43;2.80;;;;;;;;;;5091980;28;20276;-85
2023/04/23 12:16:59;;;;;;;8.97;4.13;;;;;;;;;;5092105;28;20208;-85
2023/04/23 12:19:30;;;;;;;4.20;3.57;;;;;;;;;;5091854;28;20305;-84
2023/04/23 12:22:01;;;;;;;4.23;2.10;;;;;;;;;;5092168;28;20206;-84
2023/04/23 12:24:30;;;;;;;7.50;3.43;;;;;;;;;;5091990;28;20239;-85
2023/04/23 12:27:01;;;;;;;4.93;3.27;;;;;;;;;;5092045;28;20223;-84
2023/04/23 12:29:31;;;;;;;5.30;2.60;;;;;;;;;;5092030;28;20193;-85
2023/04/23 12:32:00;;;;;;;4.67;3.37;;;;;;;;;;5092346;28;20225;-85
2023/04/23 12:34:28;;;;;;;8.13;3.53;;;;;;;;;;5091525;28;20228;-84
2023/04/23 12:36:57;;;;;;;8.93;3.37;;;;;;;;;;5091924;28;20201;-85
2023/04/23 12:39:28;;;;;;;11.07;3.33;;;;;;;;;;5091872;28;20275;-84
2023/04/23 12:41:59;;;;;;;5.37;3.30;;;;;;;;;;5091687;28;20212;-84
2023/04/23 12:44:29;;;;;;;4.70;2.17;;;;;;;;;;5091914;28;20224;-84
2023/04/23 12:46:58;;;;;;;7.77;3.70;;;;;;;;;;5092018;28;20254;-84
2023/04/23 12:49:28;;;;;;;4.47;2.77;;;;;;;;;;5091179;28;20288;-84
2023/04/23 12:51:59;;;;;;;5.40;2.97;;;;;;;;;;5092172;28;20214;-85
2023/04/23 12:54:30;;;;;;;8.43;2.80;;;;;;;;;;5091866;28;20192;-85
2023/04/23 12:56:59;;;;;;;4.67;2.13;;;;;;;;;;5091661;28;20300;-84
2023/04/23 12:59:28;;;;;;;5.73;1.43;;;;;;;;;;5091782;28;20255;-84
2023/04/23 13:02:00;;;;;;;6.10;3.33;;;;;;;;;;5091474;28;20246;-85
2023/04/23 13:04:30;;;;;;;2.97;2.20;;;;;;;;;;5091558;28;20228;-84
2023/04/23 13:06:58;;;;;;;12.27;3.40;;;;;;;;;;5091134;28;20290;-84
2023/04/23 13:09:27;;;;;;;6.53;2.97;;;;;;;;;;5091682;28;20199;-85
2023/04/23 13:11:56;;;;;;;1.17;1.07;;;;;;;;;;5091731;28;20238;-85
2023/04/23 13:14:25;;;;;;;2.20;1.60;;;;;;;;;;5091195;28;20287;-84
2023/04/23 13:16:56;;;;;;;3.20;1.70;;;;;;;;;;5091339;28;20271;-85
2023/04/23 13:19:25;;;;;;;4.50;1.97;;;;;;;;;;5091678;28;20296;-84
2023/04/23 13:21:53;;;;;;;2.23;1.67;;;;;;;;;;5091061;28;20205;-85
2023/04/23 13:24:22;;;;;;;6.27;2.47;;;;;;;;;;5091335;28;20214;-85
2023/04/23 13:26:50;;;;;;;4.63;2.80;;;;;;;;;;5093095;28;20303;-85
2023/04/23 13:29:19;;;;;;;5.90;3.40;;;;;;;;;;5095214;28;20203;-84
2023/04/23 13:31:47;;;;;;;3.70;3.20;;;;;;;;;;5095060;28;20196;-85
2023/04/23 13:34:17;;;;;;;3.80;2.77;;;;;;;;;;5095484;28;20400;-85
2023/04/23 13:36:45;;;;;;;5.80;3.63;;;;;;;;;;5095286;28;20341;-84
2023/04/23 13:39:14;;;;;;;4.23;3.40;;;;;;;;;;5095434;28;20294;-84
2023/04/23 13:41:42;;;;;;;6.17;3.53;;;;;;;;;;5095094;28;20262;-84
2023/04/23 13:44:12;;;;;;;4.73;2.97;;;;;;;;;;5095231;28;20206;-84
2023/04/23 13:46:41;;;;;;;6.63;3.13;;;;;;;;;;5094877;28;20197;-85
2023/04/23 13:49:09;;;;;;;4.73;2.57;;;;;;;;;;5094975;28;20203;-84
2023/04/23 13:51:39;;;;;;;3.43;1.93;;;;;;;;;;5094992;28;20240;-84
2023/04/23 13:54:07;;;;;;;3.00;2.10;;;;;;;;;;5094883;28;20239;-84
2023/04/23 13:56:36;;;;;;;4.33;2.50;;;;;;;;;;5095018;28;20238;-84
2023/04/23 13:59:04;;;;;;;2.03;1.73;;;;;;;;;;5094591;28;20247;-84
2023/04/23 14:01:48;;;;;;;12.83;4.33;;;;;;;;;;5094717;28;20234;-84
2023/04/23 14:04:17;;;;;;;6.80;2.33;;;;;;;;;;5094783;28;20238;-83
2023/04/23 14:06:47;;;;;;;1.77;1.63;;;;;;;;;;5094900;28;20265;-84
2023/04/23 14:09:15;;;;;;;1.40;1.30;;;;;;;;;;5094500;28;20239;-84
2023/04/23 14:11:43;;;;;;;4.30;1.60;;;;;;;;;;5094663;28;20265;-84
2023/04/23 14:14:12;;;;;;;3.07;1.90;;;;;;;;;;5094419;28;20234;-84
2023/04/23 14:16:40;;;;;;;8.13;2.50;;;;;;;;;;5093921;28;20182;-83
2023/04/23 14:19:09;;;;;;;7.13;3.37;;;;;;;;;;5094251;28;20237;-84
2023/04/23 14:21:37;;;;;;;10.63;4.53;;;;;;;;;;5094161;28;20201;-84
2023/04/23 14:24:17;;;;;;;10.43;2.83;;;;;;;;;;5094106;28;20247;-84
2023/04/23 14:26:47;;;;;;;6.20;3.37;;;;;;;;;;5093969;28;20232;-84
2023/04/23 14:29:25;;;;;;;4.40;3.20;;;;;;;;;;5094354;28;20201;-85
2023/04/23 14:31:53;;;;;;;11.13;2.77;;;;;;;;;;5093934;28;20184;-84
2023/04/23 14:34:22;;;;;;;5.00;1.53;;;;;;;;;;5094116;28;20308;-84
2023/04/23 14:36:51;;;;;;;0.93;0.93;;;;;;;;;;5094427;28;20223;-84
2023/04/23 14:39:22;;;;;;;2.13;2.00;;;;;;;;;;5093101;28;20226;-84
2023/04/23 14:41:50;;;;;;;4.80;2.50;;;;;;;;;;5094655;28;20251;-84
2023/04/23 14:44:22;;;;;;;5.07;2.50;;;;;;;;;;5094183;28;20198;-84
2023/04/23 14:46:50;;;;;;;5.27;3.37;;;;;;;;;;5093613;28;20225;-84